sensor_id;sensor_type;location;lat;lon;timestamp;P1;durP1;ratioP1;P2;durP2;ratioP2
47251;SDS011;32991;51.374;11.586;2023-04-08T00:00:50;9.27;;;8.05;;
47251;SDS011;32991;51.374;11.586;2023-04-08T00:03:17;9.50;;;8.60;;
47251;SDS011;32991;51.374;11.586;2023-04-08T00:05:44;9.40;;;8.07;;
47251;SDS011;32991;51.374;11.586;2023-04-08T00:08:10;8.20;;;7.40;;
47251;SDS011;32991;51.374;11.586;2023-04-08T00:10:37;8.05;;;7.15;;
47251;SDS011;32991;51.374;11.586;2023-04-08T00:13:03;9.05;;;8.02;;
47251;SDS011;32991;51.374;11.586;2023-04-08T00:15:29;8.55;;;7.32;;
47251;SDS011;32991;51.374;11.586;2023-04-08T00:17:56;8.60;;;7.70;;
47251;SDS011;32991;51.374;11.586;2023-04-08T00:20:23;8.63;;;7.72;;
47251;SDS011;32991;51.374;11.586;2023-04-08T00:22:50;8.15;;;7.35;;
47251;SDS011;32991;51.374;11.586;2023-04-08T00:25:16;9.07;;;7.75;;
47251;SDS011;32991;51.374;11.586;2023-04-08T00:27:43;8.32;;;7.50;;
47251;SDS011;32991;51.374;11.586;2023-04-08T00:30:09;10.02;;;8.20;;
47251;SDS011;32991;51.374;11.586;2023-04-08T00:32:36;9.77;;;7.97;;
47251;SDS011;32991;51.374;11.586;2023-04-08T00:35:03;8.63;;;7.82;;
47251;SDS011;32991;51.374;11.586;2023-04-08T00:37:30;9.68;;;7.97;;
47251;SDS011;32991;51.374;11.586;2023-04-08T00:39:57;8.80;;;8.00;;
47251;SDS011;32991;51.374;11.586;2023-04-08T00:42:23;8.95;;;7.63;;
47251;SDS011;32991;51.374;11.586;2023-04-08T00:44:50;8.00;;;7.20;;
47251;SDS011;32991;51.374;11.586;2023-04-08T00:47:17;7.93;;;7.15;;
47251;SDS011;32991;51.374;11.586;2023-04-08T00:49:43;8.27;;;7.47;;
47251;SDS011;32991;51.374;11.586;2023-04-08T00:52:11;9.30;;;8.07;;
47251;SDS011;32991;51.374;11.586;2023-04-08T00:54:38;9.05;;;8.13;;
47251;SDS011;32991;51.374;11.586;2023-04-08T00:57:05;8.82;;;7.93;;
47251;SDS011;32991;51.374;11.586;2023-04-08T00:59:32;9.13;;;8.23;;
47251;SDS011;32991;51.374;11.586;2023-04-08T01:10:10;7.10;;;4.77;;
47251;SDS011;32991;51.374;11.586;2023-04-08T01:12:39;7.85;;;7.03;;
47251;SDS011;32991;51.374;11.586;2023-04-08T01:15:08;8.00;;;7.20;;
47251;SDS011;32991;51.374;11.586;2023-04-08T01:17:37;9.05;;;7.50;;
47251;SDS011;32991;51.374;11.586;2023-04-08T01:20:04;9.40;;;7.93;;
47251;SDS011;32991;51.374;11.586;2023-04-08T01:25:21;8.52;;;7.57;;
47251;SDS011;32991;51.374;11.586;2023-04-08T01:27:49;11.73;;;8.55;;
47251;SDS011;32991;51.374;11.586;2023-04-08T01:30:18;10.43;;;9.02;;
47251;SDS011;32991;51.374;11.586;2023-04-08T01:32:46;9.88;;;8.88;;
47251;SDS011;32991;51.374;11.586;2023-04-08T01:35:14;10.77;;;9.45;;
47251;SDS011;32991;51.374;11.586;2023-04-08T01:37:41;11.23;;;9.45;;
47251;SDS011;32991;51.374;11.586;2023-04-08T01:40:08;10.38;;;9.02;;
47251;SDS011;32991;51.374;11.586;2023-04-08T01:42:36;9.88;;;8.88;;
47251;SDS011;32991;51.374;11.586;2023-04-08T01:45:03;9.48;;;8.48;;
47251;SDS011;32991;51.374;11.586;2023-04-08T01:47:30;11.38;;;9.48;;
47251;SDS011;32991;51.374;11.586;2023-04-08T01:49:57;13.02;;;9.82;;
47251;SDS011;32991;51.374;11.586;2023-04-08T01:52:25;11.75;;;8.98;;
47251;SDS011;32991;51.374;11.586;2023-04-08T01:54:52;9.98;;;8.52;;
47251;SDS011;32991;51.374;11.586;2023-04-08T01:57:21;9.88;;;8.45;;
47251;SDS011;32991;51.374;11.586;2023-04-08T01:59:50;13.52;;;10.45;;
47251;SDS011;32991;51.374;11.586;2023-04-08T02:02:21;11.65;;;9.77;;
47251;SDS011;32991;51.374;11.586;2023-04-08T02:04:48;9.27;;;8.38;;
47251;SDS011;32991;51.374;11.586;2023-04-08T02:07:14;11.50;;;9.75;;
47251;SDS011;32991;51.374;11.586;2023-04-08T02:09:41;12.30;;;9.52;;
47251;SDS011;32991;51.374;11.586;2023-04-08T02:12:07;11.80;;;9.80;;
47251;SDS011;32991;51.374;11.586;2023-04-08T02:14:35;11.15;;;9.48;;
47251;SDS011;32991;51.374;11.586;2023-04-08T02:17:09;12.20;;;10.45;;
47251;SDS011;32991;51.374;11.586;2023-04-08T02:19:48;14.38;;;10.57;;
47251;SDS011;32991;51.374;11.586;2023-04-08T02:22:22;13.27;;;10.80;;
47251;SDS011;32991;51.374;11.586;2023-04-08T02:24:52;14.43;;;11.23;;
47251;SDS011;32991;51.374;11.586;2023-04-08T02:27:19;14.20;;;11.05;;
47251;SDS011;32991;51.374;11.586;2023-04-08T02:29:46;9.95;;;6.47;;
47251;SDS011;32991;51.374;11.586;2023-04-08T02:32:13;13.32;;;11.27;;
47251;SDS011;32991;51.374;11.586;2023-04-08T02:34:40;14.35;;;10.18;;
47251;SDS011;32991;51.374;11.586;2023-04-08T02:37:08;12.38;;;10.15;;
47251;SDS011;32991;51.374;11.586;2023-04-08T02:39:34;11.70;;;10.32;;
47251;SDS011;32991;51.374;11.586;2023-04-08T02:42:01;12.38;;;10.50;;
47251;SDS011;32991;51.374;11.586;2023-04-08T02:44:29;12.00;;;10.20;;
47251;SDS011;32991;51.374;11.586;2023-04-08T02:46:57;11.85;;;10.32;;
47251;SDS011;32991;51.374;11.586;2023-04-08T02:49:24;12.35;;;10.40;;
47251;SDS011;32991;51.374;11.586;2023-04-08T02:51:50;12.80;;;11.27;;
47251;SDS011;32991;51.374;11.586;2023-04-08T02:54:17;14.13;;;11.70;;
47251;SDS011;32991;51.374;11.586;2023-04-08T02:56:43;12.45;;;10.85;;
47251;SDS011;32991;51.374;11.586;2023-04-08T02:59:10;13.80;;;11.23;;
47251;SDS011;32991;51.374;11.586;2023-04-08T03:01:36;13.10;;;11.25;;
47251;SDS011;32991;51.374;11.586;2023-04-08T03:04:03;12.75;;;10.65;;
47251;SDS011;32991;51.374;11.586;2023-04-08T03:06:30;13.55;;;11.30;;
47251;SDS011;32991;51.374;11.586;2023-04-08T03:08:57;14.43;;;11.13;;
47251;SDS011;32991;51.374;11.586;2023-04-08T03:11:23;15.45;;;11.80;;
47251;SDS011;32991;51.374;11.586;2023-04-08T03:13:51;14.88;;;10.98;;
47251;SDS011;32991;51.374;11.586;2023-04-08T03:16:17;14.50;;;10.27;;
47251;SDS011;32991;51.374;11.586;2023-04-08T03:18:44;13.70;;;10.07;;
47251;SDS011;32991;51.374;11.586;2023-04-08T03:21:10;14.38;;;11.23;;
47251;SDS011;32991;51.374;11.586;2023-04-08T03:23:37;12.77;;;6.20;;
47251;SDS011;32991;51.374;11.586;2023-04-08T03:26:03;13.27;;;10.27;;
47251;SDS011;32991;51.374;11.586;2023-04-08T03:28:30;14.95;;;10.32;;
47251;SDS011;32991;51.374;11.586;2023-04-08T03:30:56;14.35;;;9.85;;
47251;SDS011;32991;51.374;11.586;2023-04-08T03:33:23;11.90;;;9.30;;
47251;SDS011;32991;51.374;11.586;2023-04-08T03:35:50;13.23;;;10.00;;
47251;SDS011;32991;51.374;11.586;2023-04-08T03:38:16;13.60;;;10.95;;
47251;SDS011;32991;51.374;11.586;2023-04-08T03:40:43;14.63;;;10.77;;
47251;SDS011;32991;51.374;11.586;2023-04-08T03:43:09;12.93;;;10.68;;
47251;SDS011;32991;51.374;11.586;2023-04-08T03:45:37;12.75;;;6.95;;
47251;SDS011;32991;51.374;11.586;2023-04-08T03:48:03;14.68;;;10.45;;
47251;SDS011;32991;51.374;11.586;2023-04-08T03:50:30;17.80;;;12.40;;
47251;SDS011;32991;51.374;11.586;2023-04-08T03:52:56;17.15;;;11.73;;
47251;SDS011;32991;51.374;11.586;2023-04-08T03:55:23;12.40;;;6.93;;
47251;SDS011;32991;51.374;11.586;2023-04-08T03:57:49;17.70;;;12.55;;
47251;SDS011;32991;51.374;11.586;2023-04-08T04:00:16;16.15;;;11.95;;
47251;SDS011;32991;51.374;11.586;2023-04-08T04:02:43;16.58;;;12.98;;
47251;SDS011;32991;51.374;11.586;2023-04-08T04:05:10;15.15;;;7.38;;
47251;SDS011;32991;51.374;11.586;2023-04-08T04:07:36;17.63;;;12.82;;
47251;SDS011;32991;51.374;11.586;2023-04-08T04:10:03;17.35;;;13.25;;
47251;SDS011;32991;51.374;11.586;2023-04-08T04:12:29;15.68;;;8.48;;
47251;SDS011;32991;51.374;11.586;2023-04-08T04:14:56;16.15;;;12.30;;
47251;SDS011;32991;51.374;11.586;2023-04-08T04:17:22;18.00;;;12.48;;
47251;SDS011;32991;51.374;11.586;2023-04-08T04:19:49;16.30;;;12.85;;
47251;SDS011;32991;51.374;11.586;2023-04-08T04:22:15;15.00;;;8.50;;
47251;SDS011;32991;51.374;11.586;2023-04-08T04:24:45;17.13;;;12.35;;
47251;SDS011;32991;51.374;11.586;2023-04-08T04:27:13;16.92;;;12.02;;
47251;SDS011;32991;51.374;11.586;2023-04-08T04:29:39;15.68;;;12.00;;
47251;SDS011;32991;51.374;11.586;2023-04-08T04:32:06;13.07;;;6.90;;
47251;SDS011;32991;51.374;11.586;2023-04-08T04:34:32;17.35;;;12.45;;
47251;SDS011;32991;51.374;11.586;2023-04-08T04:36:59;17.38;;;13.50;;
47251;SDS011;32991;51.374;11.586;2023-04-08T04:39:25;16.25;;;11.65;;
47251;SDS011;32991;51.374;11.586;2023-04-08T04:41:52;16.00;;;12.27;;
47251;SDS011;32991;51.374;11.586;2023-04-08T04:44:18;20.38;;;13.75;;
47251;SDS011;32991;51.374;11.586;2023-04-08T04:46:45;13.27;;;8.02;;
47251;SDS011;32991;51.374;11.586;2023-04-08T04:49:12;20.73;;;13.43;;
47251;SDS011;32991;51.374;11.586;2023-04-08T04:51:38;21.20;;;13.18;;
47251;SDS011;32991;51.374;11.586;2023-04-08T04:54:05;21.50;;;14.13;;
47251;SDS011;32991;51.374;11.586;2023-04-08T04:56:31;20.08;;;13.73;;
47251;SDS011;32991;51.374;11.586;2023-04-08T04:58:58;19.90;;;14.30;;
47251;SDS011;32991;51.374;11.586;2023-04-08T05:01:24;21.40;;;14.60;;
47251;SDS011;32991;51.374;11.586;2023-04-08T05:03:51;26.10;;;15.10;;
47251;SDS011;32991;51.374;11.586;2023-04-08T05:06:17;21.17;;;14.07;;
47251;SDS011;32991;51.374;11.586;2023-04-08T05:08:44;21.45;;;13.90;;
47251;SDS011;32991;51.374;11.586;2023-04-08T05:11:10;19.95;;;13.52;;
47251;SDS011;32991;51.374;11.586;2023-04-08T05:13:37;18.33;;;12.88;;
47251;SDS011;32991;51.374;11.586;2023-04-08T05:16:04;15.57;;;7.68;;
47251;SDS011;32991;51.374;11.586;2023-04-08T05:18:31;18.75;;;12.93;;
47251;SDS011;32991;51.374;11.586;2023-04-08T05:20:57;17.17;;;12.13;;
47251;SDS011;32991;51.374;11.586;2023-04-08T05:23:24;13.95;;;11.07;;
47251;SDS011;32991;51.374;11.586;2023-04-08T05:25:51;10.80;;;6.35;;
47251;SDS011;32991;51.374;11.586;2023-04-08T05:28:17;16.60;;;12.07;;
47251;SDS011;32991;51.374;11.586;2023-04-08T05:30:50;19.23;;;12.10;;
47251;SDS011;32991;51.374;11.586;2023-04-08T05:33:17;13.10;;;6.75;;
47251;SDS011;32991;51.374;11.586;2023-04-08T05:35:44;18.10;;;11.15;;
47251;SDS011;32991;51.374;11.586;2023-04-08T05:38:11;15.95;;;10.65;;
47251;SDS011;32991;51.374;11.586;2023-04-08T05:40:37;15.98;;;11.57;;
47251;SDS011;32991;51.374;11.586;2023-04-08T05:43:04;14.95;;;10.82;;
47251;SDS011;32991;51.374;11.586;2023-04-08T05:45:30;12.88;;;6.80;;
47251;SDS011;32991;51.374;11.586;2023-04-08T05:47:57;15.45;;;10.68;;
47251;SDS011;32991;51.374;11.586;2023-04-08T05:50:24;15.02;;;10.05;;
47251;SDS011;32991;51.374;11.586;2023-04-08T05:52:50;17.40;;;11.15;;
47251;SDS011;32991;51.374;11.586;2023-04-08T05:55:17;18.88;;;11.85;;
47251;SDS011;32991;51.374;11.586;2023-04-08T05:57:44;16.73;;;8.63;;
47251;SDS011;32991;51.374;11.586;2023-04-08T06:00:10;18.77;;;11.93;;
47251;SDS011;32991;51.374;11.586;2023-04-08T06:02:37;17.92;;;11.63;;
47251;SDS011;32991;51.374;11.586;2023-04-08T06:05:04;18.45;;;12.27;;
47251;SDS011;32991;51.374;11.586;2023-04-08T06:07:32;15.55;;;11.70;;
47251;SDS011;32991;51.374;11.586;2023-04-08T06:09:59;15.15;;;11.80;;
47251;SDS011;32991;51.374;11.586;2023-04-08T06:12:26;17.77;;;12.73;;
47251;SDS011;32991;51.374;11.586;2023-04-08T06:14:53;19.65;;;12.45;;
47251;SDS011;32991;51.374;11.586;2023-04-08T06:17:21;17.50;;;12.57;;
47251;SDS011;32991;51.374;11.586;2023-04-08T06:19:47;16.45;;;11.75;;
47251;SDS011;32991;51.374;11.586;2023-04-08T06:22:14;17.92;;;12.85;;
47251;SDS011;32991;51.374;11.586;2023-04-08T06:24:40;18.85;;;8.93;;
47251;SDS011;32991;51.374;11.586;2023-04-08T06:27:07;17.38;;;13.02;;
47251;SDS011;32991;51.374;11.586;2023-04-08T06:29:34;17.38;;;13.25;;
47251;SDS011;32991;51.374;11.586;2023-04-08T06:32:00;18.00;;;13.00;;
47251;SDS011;32991;51.374;11.586;2023-04-08T06:34:27;19.55;;;13.15;;
47251;SDS011;32991;51.374;11.586;2023-04-08T06:36:53;20.92;;;13.68;;
47251;SDS011;32991;51.374;11.586;2023-04-08T06:39:20;19.10;;;13.13;;
47251;SDS011;32991;51.374;11.586;2023-04-08T06:41:46;19.60;;;14.57;;
47251;SDS011;32991;51.374;11.586;2023-04-08T06:44:27;18.23;;;12.30;;
47251;SDS011;32991;51.374;11.586;2023-04-08T06:46:53;14.07;;;8.02;;
47251;SDS011;32991;51.374;11.586;2023-04-08T06:49:21;22.08;;;15.07;;
47251;SDS011;32991;51.374;11.586;2023-04-08T06:51:47;21.20;;;14.25;;
47251;SDS011;32991;51.374;11.586;2023-04-08T06:54:14;20.85;;;14.88;;
47251;SDS011;32991;51.374;11.586;2023-04-08T06:56:41;20.50;;;15.45;;
47251;SDS011;32991;51.374;11.586;2023-04-08T06:59:07;19.38;;;9.57;;
47251;SDS011;32991;51.374;11.586;2023-04-08T07:01:34;20.70;;;14.55;;
47251;SDS011;32991;51.374;11.586;2023-04-08T07:04:01;21.85;;;14.57;;
47251;SDS011;32991;51.374;11.586;2023-04-08T07:06:28;17.92;;;13.82;;
47251;SDS011;32991;51.374;11.586;2023-04-08T07:08:54;18.60;;;13.88;;
47251;SDS011;32991;51.374;11.586;2023-04-08T07:11:21;19.80;;;14.30;;
47251;SDS011;32991;51.374;11.586;2023-04-08T07:13:48;18.00;;;14.18;;
47251;SDS011;32991;51.374;11.586;2023-04-08T07:16:14;17.33;;;13.30;;
47251;SDS011;32991;51.374;11.586;2023-04-08T07:18:41;19.63;;;14.10;;
47251;SDS011;32991;51.374;11.586;2023-04-08T07:21:09;20.92;;;13.50;;
47251;SDS011;32991;51.374;11.586;2023-04-08T07:23:35;15.82;;;11.95;;
47251;SDS011;32991;51.374;11.586;2023-04-08T07:26:02;17.35;;;11.77;;
47251;SDS011;32991;51.374;11.586;2023-04-08T07:28:32;14.93;;;11.18;;
47251;SDS011;32991;51.374;11.586;2023-04-08T07:31:08;16.50;;;10.55;;
47251;SDS011;32991;51.374;11.586;2023-04-08T07:33:36;15.70;;;10.77;;
47251;SDS011;32991;51.374;11.586;2023-04-08T07:36:03;13.80;;;10.43;;
47251;SDS011;32991;51.374;11.586;2023-04-08T07:38:30;11.93;;;9.65;;
47251;SDS011;32991;51.374;11.586;2023-04-08T07:40:56;12.05;;;8.57;;
47251;SDS011;32991;51.374;11.586;2023-04-08T07:43:23;12.80;;;8.98;;
47251;SDS011;32991;51.374;11.586;2023-04-08T07:45:49;11.85;;;8.63;;
47251;SDS011;32991;51.374;11.586;2023-04-08T07:48:16;9.30;;;8.30;;
47251;SDS011;32991;51.374;11.586;2023-04-08T07:50:43;9.27;;;7.82;;
47251;SDS011;32991;51.374;11.586;2023-04-08T07:53:31;8.82;;;7.57;;
47251;SDS011;32991;51.374;11.586;2023-04-08T07:55:58;9.95;;;7.82;;
47251;SDS011;32991;51.374;11.586;2023-04-08T07:58:25;10.18;;;8.05;;
47251;SDS011;32991;51.374;11.586;2023-04-08T08:00:52;9.18;;;7.47;;
47251;SDS011;32991;51.374;11.586;2023-04-08T08:03:19;9.07;;;7.20;;
47251;SDS011;32991;51.374;11.586;2023-04-08T08:05:45;8.55;;;6.80;;
47251;SDS011;32991;51.374;11.586;2023-04-08T08:08:12;7.40;;;6.60;;
47251;SDS011;32991;51.374;11.586;2023-04-08T08:10:39;6.78;;;6.05;;
47251;SDS011;32991;51.374;11.586;2023-04-08T08:13:06;7.55;;;6.30;;
47251;SDS011;32991;51.374;11.586;2023-04-08T08:15:33;8.00;;;6.60;;
47251;SDS011;32991;51.374;11.586;2023-04-08T08:17:59;9.25;;;7.13;;
47251;SDS011;32991;51.374;11.586;2023-04-08T08:20:26;8.02;;;6.82;;
47251;SDS011;32991;51.374;11.586;2023-04-08T08:22:53;12.07;;;7.13;;
47251;SDS011;32991;51.374;11.586;2023-04-08T08:25:23;8.07;;;6.32;;
47251;SDS011;32991;51.374;11.586;2023-04-08T08:27:51;8.15;;;6.82;;
47251;SDS011;32991;51.374;11.586;2023-04-08T08:30:17;10.20;;;7.28;;
47251;SDS011;32991;51.374;11.586;2023-04-08T08:32:46;8.55;;;7.07;;
47251;SDS011;32991;51.374;11.586;2023-04-08T08:35:13;8.20;;;6.93;;
47251;SDS011;32991;51.374;11.586;2023-04-08T08:37:40;9.88;;;7.43;;
47251;SDS011;32991;51.374;11.586;2023-04-08T08:40:07;8.02;;;6.72;;
47251;SDS011;32991;51.374;11.586;2023-04-08T08:42:34;8.32;;;6.90;;
47251;SDS011;32991;51.374;11.586;2023-04-08T08:45:01;8.60;;;6.85;;
47251;SDS011;32991;51.374;11.586;2023-04-08T08:47:29;8.50;;;6.97;;
47251;SDS011;32991;51.374;11.586;2023-04-08T08:49:56;8.80;;;7.32;;
47251;SDS011;32991;51.374;11.586;2023-04-08T08:52:22;8.25;;;7.13;;
47251;SDS011;32991;51.374;11.586;2023-04-08T08:54:55;8.70;;;7.70;;
47251;SDS011;32991;51.374;11.586;2023-04-08T08:57:22;9.77;;;7.57;;
47251;SDS011;32991;51.374;11.586;2023-04-08T08:59:49;9.55;;;7.70;;
47251;SDS011;32991;51.374;11.586;2023-04-08T09:02:22;9.55;;;8.27;;
47251;SDS011;32991;51.374;11.586;2023-04-08T09:04:57;8.80;;;7.55;;
47251;SDS011;32991;51.374;11.586;2023-04-08T09:07:31;10.60;;;8.63;;
47251;SDS011;32991;51.374;11.586;2023-04-08T09:10:00;10.00;;;8.50;;
47251;SDS011;32991;51.374;11.586;2023-04-08T09:12:27;10.88;;;9.00;;
47251;SDS011;32991;51.374;11.586;2023-04-08T09:15:07;11.15;;;8.73;;
47251;SDS011;32991;51.374;11.586;2023-04-08T09:17:38;11.77;;;9.65;;
47251;SDS011;32991;51.374;11.586;2023-04-08T09:20:09;14.23;;;11.30;;
47251;SDS011;32991;51.374;11.586;2023-04-08T09:25:37;15.98;;;12.80;;
47251;SDS011;32991;51.374;11.586;2023-04-08T09:28:03;19.73;;;13.80;;
47251;SDS011;32991;51.374;11.586;2023-04-08T09:30:31;19.27;;;13.52;;
47251;SDS011;32991;51.374;11.586;2023-04-08T09:32:57;18.85;;;14.60;;
47251;SDS011;32991;51.374;11.586;2023-04-08T09:35:24;18.10;;;13.48;;
47251;SDS011;32991;51.374;11.586;2023-04-08T09:37:51;20.42;;;14.27;;
47251;SDS011;32991;51.374;11.586;2023-04-08T09:40:18;18.42;;;13.65;;
47251;SDS011;32991;51.374;11.586;2023-04-08T09:42:45;20.92;;;16.48;;
47251;SDS011;32991;51.374;11.586;2023-04-08T09:45:14;21.98;;;15.20;;
47251;SDS011;32991;51.374;11.586;2023-04-08T09:47:43;20.75;;;15.50;;
47251;SDS011;32991;51.374;11.586;2023-04-08T09:50:18;23.15;;;15.75;;
47251;SDS011;32991;51.374;11.586;2023-04-08T09:52:46;22.80;;;17.27;;
47251;SDS011;32991;51.374;11.586;2023-04-08T09:55:16;24.85;;;16.80;;
47251;SDS011;32991;51.374;11.586;2023-04-08T09:58:00;26.08;;;17.48;;
47251;SDS011;32991;51.374;11.586;2023-04-08T10:00:31;25.88;;;18.10;;
47251;SDS011;32991;51.374;11.586;2023-04-08T10:03:09;28.83;;;18.83;;
47251;SDS011;32991;51.374;11.586;2023-04-08T10:05:40;26.77;;;19.17;;
47251;SDS011;32991;51.374;11.586;2023-04-08T10:08:07;30.70;;;19.85;;
47251;SDS011;32991;51.374;11.586;2023-04-08T10:10:34;27.88;;;19.50;;
47251;SDS011;32991;51.374;11.586;2023-04-08T10:13:02;28.27;;;20.00;;
47251;SDS011;32991;51.374;11.586;2023-04-08T10:15:30;31.13;;;20.25;;
47251;SDS011;32991;51.374;11.586;2023-04-08T10:22:59;31.88;;;21.10;;
47251;SDS011;32991;51.374;11.586;2023-04-08T10:25:30;35.78;;;23.73;;
47251;SDS011;32991;51.374;11.586;2023-04-08T10:28:00;38.28;;;20.52;;
47251;SDS011;32991;51.374;11.586;2023-04-08T10:32:58;37.88;;;24.58;;
47251;SDS011;32991;51.374;11.586;2023-04-08T10:35:28;38.70;;;25.15;;
47251;SDS011;32991;51.374;11.586;2023-04-08T10:37:56;38.70;;;24.35;;
47251;SDS011;32991;51.374;11.586;2023-04-08T10:40:23;36.92;;;24.65;;
47251;SDS011;32991;51.374;11.586;2023-04-08T10:42:54;37.90;;;24.08;;
47251;SDS011;32991;51.374;11.586;2023-04-08T10:45:24;38.20;;;25.15;;
47251;SDS011;32991;51.374;11.586;2023-04-08T10:47:51;40.08;;;25.67;;
47251;SDS011;32991;51.374;11.586;2023-04-08T10:50:18;41.88;;;27.13;;
47251;SDS011;32991;51.374;11.586;2023-04-08T10:52:46;38.97;;;26.40;;
47251;SDS011;32991;51.374;11.586;2023-04-08T10:55:13;38.58;;;25.45;;
47251;SDS011;32991;51.374;11.586;2023-04-08T10:57:40;40.85;;;26.52;;
47251;SDS011;32991;51.374;11.586;2023-04-08T11:00:16;38.42;;;26.13;;
47251;SDS011;32991;51.374;11.586;2023-04-08T11:02:43;35.95;;;25.13;;
47251;SDS011;32991;51.374;11.586;2023-04-08T11:05:10;37.90;;;25.92;;
47251;SDS011;32991;51.374;11.586;2023-04-08T11:07:40;35.35;;;25.38;;
47251;SDS011;32991;51.374;11.586;2023-04-08T11:10:07;35.08;;;24.67;;
47251;SDS011;32991;51.374;11.586;2023-04-08T11:12:34;33.20;;;24.75;;
47251;SDS011;32991;51.374;11.586;2023-04-08T11:15:02;32.92;;;24.80;;
47251;SDS011;32991;51.374;11.586;2023-04-08T11:17:29;31.40;;;23.55;;
47251;SDS011;32991;51.374;11.586;2023-04-08T11:19:56;36.35;;;24.50;;
47251;SDS011;32991;51.374;11.586;2023-04-08T11:22:27;35.00;;;24.75;;
47251;SDS011;32991;51.374;11.586;2023-04-08T11:24:57;32.70;;;24.67;;
47251;SDS011;32991;51.374;11.586;2023-04-08T11:27:23;31.23;;;24.05;;
47251;SDS011;32991;51.374;11.586;2023-04-08T11:29:54;30.17;;;22.63;;
47251;SDS011;32991;51.374;11.586;2023-04-08T11:32:21;32.17;;;22.95;;
47251;SDS011;32991;51.374;11.586;2023-04-08T11:34:48;30.58;;;23.83;;
47251;SDS011;32991;51.374;11.586;2023-04-08T11:37:15;30.92;;;23.20;;
47251;SDS011;32991;51.374;11.586;2023-04-08T11:39:42;28.60;;;22.02;;
47251;SDS011;32991;51.374;11.586;2023-04-08T11:42:24;32.33;;;23.20;;
47251;SDS011;32991;51.374;11.586;2023-04-08T11:44:54;30.15;;;22.23;;
47251;SDS011;32991;51.374;11.586;2023-04-08T11:47:21;28.58;;;21.52;;
47251;SDS011;32991;51.374;11.586;2023-04-08T11:49:48;26.20;;;20.92;;
47251;SDS011;32991;51.374;11.586;2023-04-08T11:52:14;26.30;;;19.90;;
47251;SDS011;32991;51.374;11.586;2023-04-08T11:54:41;27.85;;;21.77;;
47251;SDS011;32991;51.374;11.586;2023-04-08T11:57:08;25.33;;;19.88;;
47251;SDS011;32991;51.374;11.586;2023-04-08T11:59:37;25.63;;;20.55;;
47251;SDS011;32991;51.374;11.586;2023-04-08T12:02:04;28.67;;;21.83;;
47251;SDS011;32991;51.374;11.586;2023-04-08T12:04:31;26.67;;;21.33;;
47251;SDS011;32991;51.374;11.586;2023-04-08T12:06:59;27.35;;;20.92;;
47251;SDS011;32991;51.374;11.586;2023-04-08T12:09:26;26.48;;;21.33;;
47251;SDS011;32991;51.374;11.586;2023-04-08T12:11:52;25.70;;;20.70;;
47251;SDS011;32991;51.374;11.586;2023-04-08T12:14:19;27.35;;;21.27;;
47251;SDS011;32991;51.374;11.586;2023-04-08T12:16:47;26.70;;;20.95;;
47251;SDS011;32991;51.374;11.586;2023-04-08T12:19:13;30.05;;;21.95;;
47251;SDS011;32991;51.374;11.586;2023-04-08T12:21:40;25.23;;;19.95;;
47251;SDS011;32991;51.374;11.586;2023-04-08T12:24:06;25.60;;;19.60;;
47251;SDS011;32991;51.374;11.586;2023-04-08T12:26:33;24.02;;;19.77;;
47251;SDS011;32991;51.374;11.586;2023-04-08T12:28:59;25.95;;;20.58;;
47251;SDS011;32991;51.374;11.586;2023-04-08T12:31:26;23.25;;;19.25;;
47251;SDS011;32991;51.374;11.586;2023-04-08T12:33:53;26.55;;;20.30;;
47251;SDS011;32991;51.374;11.586;2023-04-08T12:36:20;25.67;;;20.23;;
47251;SDS011;32991;51.374;11.586;2023-04-08T12:38:46;26.23;;;20.73;;
47251;SDS011;32991;51.374;11.586;2023-04-08T12:41:13;27.40;;;21.52;;
47251;SDS011;32991;51.374;11.586;2023-04-08T12:43:39;27.80;;;21.30;;
47251;SDS011;32991;51.374;11.586;2023-04-08T12:46:06;24.60;;;18.52;;
47251;SDS011;32991;51.374;11.586;2023-04-08T12:48:33;23.15;;;18.75;;
47251;SDS011;32991;51.374;11.586;2023-04-08T12:50:59;22.98;;;19.40;;
47251;SDS011;32991;51.374;11.586;2023-04-08T12:53:26;24.33;;;18.60;;
47251;SDS011;32991;51.374;11.586;2023-04-08T12:55:52;23.90;;;19.35;;
47251;SDS011;32991;51.374;11.586;2023-04-08T12:58:23;23.65;;;18.35;;
47251;SDS011;32991;51.374;11.586;2023-04-08T13:00:50;26.52;;;19.90;;
47251;SDS011;32991;51.374;11.586;2023-04-08T13:03:16;27.30;;;19.88;;
47251;SDS011;32991;51.374;11.586;2023-04-08T13:05:43;23.40;;;18.52;;
47251;SDS011;32991;51.374;11.586;2023-04-08T13:08:10;23.38;;;18.52;;
47251;SDS011;32991;51.374;11.586;2023-04-08T13:10:40;24.52;;;19.48;;
47251;SDS011;32991;51.374;11.586;2023-04-08T13:13:07;27.38;;;20.30;;
47251;SDS011;32991;51.374;11.586;2023-04-08T13:15:33;25.23;;;19.63;;
47251;SDS011;32991;51.374;11.586;2023-04-08T13:18:00;26.35;;;20.05;;
47251;SDS011;32991;51.374;11.586;2023-04-08T13:20:26;26.63;;;20.95;;
47251;SDS011;32991;51.374;11.586;2023-04-08T13:22:53;22.77;;;19.58;;
47251;SDS011;32991;51.374;11.586;2023-04-08T13:25:20;28.63;;;22.10;;
47251;SDS011;32991;51.374;11.586;2023-04-08T13:27:46;27.67;;;22.13;;
47251;SDS011;32991;51.374;11.586;2023-04-08T13:30:13;28.77;;;22.42;;
47251;SDS011;32991;51.374;11.586;2023-04-08T13:32:39;28.67;;;22.15;;
47251;SDS011;32991;51.374;11.586;2023-04-08T13:35:06;27.63;;;21.30;;
47251;SDS011;32991;51.374;11.586;2023-04-08T13:37:33;26.83;;;21.45;;
47251;SDS011;32991;51.374;11.586;2023-04-08T13:39:59;28.00;;;22.88;;
47251;SDS011;32991;51.374;11.586;2023-04-08T13:42:26;29.15;;;22.17;;
47251;SDS011;32991;51.374;11.586;2023-04-08T13:44:53;27.80;;;21.80;;
47251;SDS011;32991;51.374;11.586;2023-04-08T13:47:19;28.00;;;21.85;;
47251;SDS011;32991;51.374;11.586;2023-04-08T13:49:46;28.50;;;22.10;;
47251;SDS011;32991;51.374;11.586;2023-04-08T13:52:12;29.92;;;22.77;;
47251;SDS011;32991;51.374;11.586;2023-04-08T13:54:39;31.42;;;23.85;;
47251;SDS011;32991;51.374;11.586;2023-04-08T13:57:05;30.15;;;24.17;;
47251;SDS011;32991;51.374;11.586;2023-04-08T13:59:32;34.90;;;25.38;;
47251;SDS011;32991;51.374;11.586;2023-04-08T14:01:58;29.75;;;22.02;;
47251;SDS011;32991;51.374;11.586;2023-04-08T14:04:25;29.65;;;22.23;;
47251;SDS011;32991;51.374;11.586;2023-04-08T14:06:52;30.75;;;22.20;;
47251;SDS011;32991;51.374;11.586;2023-04-08T14:09:19;31.42;;;22.38;;
47251;SDS011;32991;51.374;11.586;2023-04-08T14:11:46;32.92;;;24.85;;
47251;SDS011;32991;51.374;11.586;2023-04-08T14:14:12;31.75;;;24.33;;
47251;SDS011;32991;51.374;11.586;2023-04-08T14:16:39;31.10;;;22.85;;
47251;SDS011;32991;51.374;11.586;2023-04-08T14:19:07;31.38;;;22.83;;
47251;SDS011;32991;51.374;11.586;2023-04-08T14:21:33;32.40;;;24.10;;
47251;SDS011;32991;51.374;11.586;2023-04-08T14:24:00;34.63;;;25.30;;
47251;SDS011;32991;51.374;11.586;2023-04-08T14:26:28;36.05;;;26.08;;
47251;SDS011;32991;51.374;11.586;2023-04-08T14:28:54;33.35;;;25.58;;
47251;SDS011;32991;51.374;11.586;2023-04-08T14:31:21;30.60;;;24.13;;
47251;SDS011;32991;51.374;11.586;2023-04-08T14:33:47;33.78;;;25.63;;
47251;SDS011;32991;51.374;11.586;2023-04-08T14:36:14;38.70;;;26.73;;
47251;SDS011;32991;51.374;11.586;2023-04-08T14:38:41;33.22;;;25.23;;